sensor_id;sensor_type;location;lat;lon;timestamp;P1;durP1;ratioP1;P2;durP2;ratioP2
2542;SDS011;1116;51.502;7.414;2023-05-14T00:02:23;14.43;;;12.50;;
2542;SDS011;1116;51.502;7.414;2023-05-14T00:04:54;13.63;;;12.33;;
2542;SDS011;1116;51.502;7.414;2023-05-14T00:07:26;13.07;;;11.77;;
2542;SDS011;1116;51.502;7.414;2023-05-14T00:09:57;12.33;;;11.23;;
2542;SDS011;1116;51.502;7.414;2023-05-14T00:12:29;13.07;;;11.90;;
2542;SDS011;1116;51.502;7.414;2023-05-14T00:15:04;13.03;;;11.80;;
2542;SDS011;1116;51.502;7.414;2023-05-14T00:17:36;14.73;;;11.97;;
2542;SDS011;1116;51.502;7.414;2023-05-14T00:20:09;13.70;;;12.50;;
2542;SDS011;1116;51.502;7.414;2023-05-14T00:22:42;13.10;;;11.90;;
2542;SDS011;1116;51.502;7.414;2023-05-14T00:25:13;13.70;;;12.50;;
2542;SDS011;1116;51.502;7.414;2023-05-14T00:27:44;13.40;;;12.20;;
2542;SDS011;1116;51.502;7.414;2023-05-14T00:30:18;14.47;;;13.17;;
2542;SDS011;1116;51.502;7.414;2023-05-14T00:32:51;14.87;;;12.37;;
2542;SDS011;1116;51.502;7.414;2023-05-14T00:35:26;15.50;;;13.30;;
2542;SDS011;1116;51.502;7.414;2023-05-14T00:37:57;14.00;;;12.70;;
2542;SDS011;1116;51.502;7.414;2023-05-14T00:40:28;13.70;;;12.40;;
2542;SDS011;1116;51.502;7.414;2023-05-14T00:42:59;12.87;;;11.67;;
2542;SDS011;1116;51.502;7.414;2023-05-14T00:45:33;15.60;;;12.67;;
2542;SDS011;1116;51.502;7.414;2023-05-14T00:48:04;12.97;;;11.77;;
2542;SDS011;1116;51.502;7.414;2023-05-14T00:50:35;13.27;;;12.07;;
2542;SDS011;1116;51.502;7.414;2023-05-14T00:53:07;12.10;;;11.10;;
2542;SDS011;1116;51.502;7.414;2023-05-14T00:55:39;13.47;;;12.27;;
2542;SDS011;1116;51.502;7.414;2023-05-14T00:58:12;15.83;;;14.23;;
2542;SDS011;1116;51.502;7.414;2023-05-14T01:00:45;15.40;;;13.80;;
2542;SDS011;1116;51.502;7.414;2023-05-14T01:03:17;14.40;;;13.20;;
2542;SDS011;1116;51.502;7.414;2023-05-14T01:05:51;14.80;;;13.50;;
2542;SDS011;1116;51.502;7.414;2023-05-14T01:08:31;14.23;;;12.93;;
2542;SDS011;1116;51.502;7.414;2023-05-14T01:11:24;15.27;;;13.77;;
2542;SDS011;1116;51.502;7.414;2023-05-14T01:14:02;16.20;;;14.70;;
2542;SDS011;1116;51.502;7.414;2023-05-14T01:16:43;15.10;;;13.57;;
2542;SDS011;1116;51.502;7.414;2023-05-14T01:19:20;14.73;;;13.33;;
2542;SDS011;1116;51.502;7.414;2023-05-14T01:21:58;15.57;;;14.07;;
2542;SDS011;1116;51.502;7.414;2023-05-14T01:24:29;15.40;;;13.90;;
2542;SDS011;1116;51.502;7.414;2023-05-14T01:27:03;17.23;;;15.63;;
2542;SDS011;1116;51.502;7.414;2023-05-14T01:29:44;14.80;;;13.30;;
2542;SDS011;1116;51.502;7.414;2023-05-14T01:32:19;16.10;;;14.57;;
2542;SDS011;1116;51.502;7.414;2023-05-14T01:34:52;15.87;;;14.20;;
2542;SDS011;1116;51.502;7.414;2023-05-14T01:37:30;15.77;;;14.27;;
2542;SDS011;1116;51.502;7.414;2023-05-14T01:40:05;15.40;;;13.90;;
2542;SDS011;1116;51.502;7.414;2023-05-14T01:42:38;17.20;;;15.57;;
2542;SDS011;1116;51.502;7.414;2023-05-14T01:45:09;15.20;;;13.80;;
2542;SDS011;1116;51.502;7.414;2023-05-14T01:47:41;16.40;;;14.83;;
2542;SDS011;1116;51.502;7.414;2023-05-14T01:50:12;14.63;;;13.33;;
2542;SDS011;1116;51.502;7.414;2023-05-14T01:52:45;15.60;;;13.93;;
2542;SDS011;1116;51.502;7.414;2023-05-14T01:55:20;15.40;;;13.90;;
2542;SDS011;1116;51.502;7.414;2023-05-14T01:57:51;15.47;;;13.97;;
2542;SDS011;1116;51.502;7.414;2023-05-14T02:00:22;15.90;;;14.33;;
2542;SDS011;1116;51.502;7.414;2023-05-14T02:02:54;15.30;;;13.70;;
2542;SDS011;1116;51.502;7.414;2023-05-14T02:05:26;17.63;;;15.93;;
2542;SDS011;1116;51.502;7.414;2023-05-14T02:07:59;16.03;;;14.50;;
2542;SDS011;1116;51.502;7.414;2023-05-14T02:10:30;16.53;;;14.83;;
2542;SDS011;1116;51.502;7.414;2023-05-14T02:13:02;16.10;;;14.40;;
2542;SDS011;1116;51.502;7.414;2023-05-14T02:15:33;17.03;;;15.43;;
2542;SDS011;1116;51.502;7.414;2023-05-14T02:18:04;16.37;;;14.83;;
2542;SDS011;1116;51.502;7.414;2023-05-14T02:20:35;16.17;;;14.67;;
2542;SDS011;1116;51.502;7.414;2023-05-14T02:23:08;17.43;;;15.60;;
2542;SDS011;1116;51.502;7.414;2023-05-14T02:25:39;15.40;;;14.00;;
2542;SDS011;1116;51.502;7.414;2023-05-14T02:28:10;15.20;;;13.80;;
2542;SDS011;1116;51.502;7.414;2023-05-14T02:30:42;14.60;;;13.30;;
2542;SDS011;1116;51.502;7.414;2023-05-14T02:33:13;16.13;;;14.70;;
2542;SDS011;1116;51.502;7.414;2023-05-14T02:35:44;14.50;;;13.20;;
2542;SDS011;1116;51.502;7.414;2023-05-14T02:38:19;15.60;;;14.10;;
2542;SDS011;1116;51.502;7.414;2023-05-14T02:40:50;15.73;;;14.23;;
2542;SDS011;1116;51.502;7.414;2023-05-14T02:43:20;16.87;;;15.20;;
2542;SDS011;1116;51.502;7.414;2023-05-14T02:45:51;16.73;;;14.93;;
2542;SDS011;1116;51.502;7.414;2023-05-14T02:48:22;14.43;;;13.07;;
2542;SDS011;1116;51.502;7.414;2023-05-14T02:50:56;15.97;;;14.40;;
2542;SDS011;1116;51.502;7.414;2023-05-14T02:53:30;15.03;;;13.63;;
2542;SDS011;1116;51.502;7.414;2023-05-14T02:56:01;15.10;;;13.70;;
2542;SDS011;1116;51.502;7.414;2023-05-14T02:58:32;16.50;;;15.00;;
2542;SDS011;1116;51.502;7.414;2023-05-14T03:01:03;16.10;;;14.50;;
2542;SDS011;1116;51.502;7.414;2023-05-14T03:03:34;16.00;;;14.50;;
2542;SDS011;1116;51.502;7.414;2023-05-14T03:06:06;16.43;;;14.90;;
2542;SDS011;1116;51.502;7.414;2023-05-14T03:08:40;14.17;;;12.97;;
2542;SDS011;1116;51.502;7.414;2023-05-14T03:11:11;15.20;;;13.70;;
2542;SDS011;1116;51.502;7.414;2023-05-14T03:13:42;14.20;;;13.00;;
2542;SDS011;1116;51.502;7.414;2023-05-14T03:16:13;14.70;;;13.40;;
2542;SDS011;1116;51.502;7.414;2023-05-14T03:18:46;15.10;;;13.60;;
2542;SDS011;1116;51.502;7.414;2023-05-14T03:21:17;15.50;;;13.87;;
2542;SDS011;1116;51.502;7.414;2023-05-14T03:23:51;16.30;;;14.00;;
2542;SDS011;1116;51.502;7.414;2023-05-14T03:26:22;14.87;;;13.40;;
2542;SDS011;1116;51.502;7.414;2023-05-14T03:28:53;13.90;;;12.70;;
2542;SDS011;1116;51.502;7.414;2023-05-14T03:31:24;15.27;;;13.27;;
2542;SDS011;1116;51.502;7.414;2023-05-14T03:33:55;14.53;;;13.13;;
2542;SDS011;1116;51.502;7.414;2023-05-14T03:36:29;13.80;;;12.40;;
2542;SDS011;1116;51.502;7.414;2023-05-14T03:39:05;14.40;;;13.00;;
2542;SDS011;1116;51.502;7.414;2023-05-14T03:41:36;14.03;;;12.73;;
2542;SDS011;1116;51.502;7.414;2023-05-14T03:44:07;14.07;;;12.77;;
2542;SDS011;1116;51.502;7.414;2023-05-14T03:46:41;14.67;;;13.20;;
2542;SDS011;1116;51.502;7.414;2023-05-14T03:49:12;14.60;;;13.10;;
2542;SDS011;1116;51.502;7.414;2023-05-14T03:51:43;14.57;;;13.07;;
2542;SDS011;1116;51.502;7.414;2023-05-14T03:54:16;13.67;;;12.20;;
2542;SDS011;1116;51.502;7.414;2023-05-14T03:56:47;15.10;;;13.70;;
2542;SDS011;1116;51.502;7.414;2023-05-14T03:59:18;13.87;;;12.57;;
2542;SDS011;1116;51.502;7.414;2023-05-14T04:01:49;13.10;;;12.00;;
2542;SDS011;1116;51.502;7.414;2023-05-14T04:04:20;14.30;;;13.00;;
2542;SDS011;1116;51.502;7.414;2023-05-14T04:06:51;13.83;;;12.57;;
2542;SDS011;1116;51.502;7.414;2023-05-14T04:09:26;14.30;;;12.80;;
2542;SDS011;1116;51.502;7.414;2023-05-14T04:11:57;13.90;;;12.60;;
2542;SDS011;1116;51.502;7.414;2023-05-14T04:14:28;15.37;;;13.80;;
2542;SDS011;1116;51.502;7.414;2023-05-14T04:16:59;14.33;;;12.90;;
2542;SDS011;1116;51.502;7.414;2023-05-14T04:19:30;15.90;;;13.47;;
2542;SDS011;1116;51.502;7.414;2023-05-14T04:22:00;14.30;;;13.00;;
2542;SDS011;1116;51.502;7.414;2023-05-14T04:24:34;13.27;;;11.97;;
2542;SDS011;1116;51.502;7.414;2023-05-14T04:27:05;12.27;;;11.27;;
2542;SDS011;1116;51.502;7.414;2023-05-14T04:29:36;12.70;;;11.50;;
2542;SDS011;1116;51.502;7.414;2023-05-14T04:32:07;13.60;;;12.20;;
2542;SDS011;1116;51.502;7.414;2023-05-14T04:34:38;12.70;;;11.47;;
2542;SDS011;1116;51.502;7.414;2023-05-14T04:37:09;13.20;;;12.10;;
2542;SDS011;1116;51.502;7.414;2023-05-14T04:39:43;13.20;;;12.00;;
2542;SDS011;1116;51.502;7.414;2023-05-14T04:42:17;12.77;;;11.47;;
2542;SDS011;1116;51.502;7.414;2023-05-14T04:44:50;12.60;;;11.40;;
2542;SDS011;1116;51.502;7.414;2023-05-14T04:47:21;13.63;;;12.33;;
2542;SDS011;1116;51.502;7.414;2023-05-14T04:49:53;14.07;;;12.70;;
2542;SDS011;1116;51.502;7.414;2023-05-14T04:52:27;13.50;;;12.20;;
2542;SDS011;1116;51.502;7.414;2023-05-14T04:55:00;12.83;;;11.63;;
2542;SDS011;1116;51.502;7.414;2023-05-14T04:57:31;12.93;;;11.73;;
2542;SDS011;1116;51.502;7.414;2023-05-14T05:00:03;11.67;;;10.67;;
2542;SDS011;1116;51.502;7.414;2023-05-14T05:02:36;13.30;;;12.20;;
2542;SDS011;1116;51.502;7.414;2023-05-14T05:05:08;12.00;;;10.97;;
2542;SDS011;1116;51.502;7.414;2023-05-14T05:07:39;12.73;;;11.53;;
2542;SDS011;1116;51.502;7.414;2023-05-14T05:10:13;12.27;;;11.10;;
2542;SDS011;1116;51.502;7.414;2023-05-14T05:12:46;11.37;;;10.47;;
2542;SDS011;1116;51.502;7.414;2023-05-14T05:15:17;11.80;;;10.90;;
2542;SDS011;1116;51.502;7.414;2023-05-14T05:17:51;11.60;;;10.73;;
2542;SDS011;1116;51.502;7.414;2023-05-14T05:20:23;11.00;;;10.10;;
2542;SDS011;1116;51.502;7.414;2023-05-14T05:22:54;11.00;;;10.00;;
2542;SDS011;1116;51.502;7.414;2023-05-14T05:25:28;10.97;;;10.10;;
2542;SDS011;1116;51.502;7.414;2023-05-14T05:28:02;10.27;;;9.47;;
2542;SDS011;1116;51.502;7.414;2023-05-14T05:30:33;9.53;;;8.73;;
2542;SDS011;1116;51.502;7.414;2023-05-14T05:33:07;9.00;;;8.20;;
2542;SDS011;1116;51.502;7.414;2023-05-14T05:35:38;10.00;;;9.20;;
2542;SDS011;1116;51.502;7.414;2023-05-14T05:38:10;10.27;;;9.47;;
2542;SDS011;1116;51.502;7.414;2023-05-14T05:40:47;10.20;;;9.40;;
2542;SDS011;1116;51.502;7.414;2023-05-14T05:43:18;10.80;;;9.90;;
2542;SDS011;1116;51.502;7.414;2023-05-14T05:45:49;10.03;;;9.13;;
2542;SDS011;1116;51.502;7.414;2023-05-14T05:48:20;10.37;;;9.47;;
2542;SDS011;1116;51.502;7.414;2023-05-14T05:50:51;10.23;;;9.30;;
2542;SDS011;1116;51.502;7.414;2023-05-14T05:53:22;10.20;;;9.20;;
2542;SDS011;1116;51.502;7.414;2023-05-14T05:55:58;10.30;;;9.30;;
2542;SDS011;1116;51.502;7.414;2023-05-14T05:58:29;8.80;;;8.20;;
2542;SDS011;1116;51.502;7.414;2023-05-14T06:01:10;10.07;;;9.17;;
2542;SDS011;1116;51.502;7.414;2023-05-14T06:03:41;10.90;;;10.00;;
2542;SDS011;1116;51.502;7.414;2023-05-14T06:06:14;12.23;;;11.20;;
2542;SDS011;1116;51.502;7.414;2023-05-14T06:08:45;12.33;;;11.33;;
2542;SDS011;1116;51.502;7.414;2023-05-14T06:11:19;12.40;;;11.30;;
2542;SDS011;1116;51.502;7.414;2023-05-14T06:13:50;12.77;;;11.50;;
2542;SDS011;1116;51.502;7.414;2023-05-14T06:16:21;13.43;;;12.20;;
2542;SDS011;1116;51.502;7.414;2023-05-14T06:18:52;11.57;;;10.77;;
2542;SDS011;1116;51.502;7.414;2023-05-14T06:21:23;11.13;;;10.13;;
2542;SDS011;1116;51.502;7.414;2023-05-14T06:23:54;12.67;;;10.33;;
2542;SDS011;1116;51.502;7.414;2023-05-14T06:26:28;10.47;;;9.47;;
2542;SDS011;1116;51.502;7.414;2023-05-14T06:28:59;9.40;;;8.70;;
2542;SDS011;1116;51.502;7.414;2023-05-14T06:31:30;9.67;;;8.90;;
2542;SDS011;1116;51.502;7.414;2023-05-14T06:34:01;9.83;;;8.93;;
2542;SDS011;1116;51.502;7.414;2023-05-14T06:36:32;9.57;;;8.67;;
2542;SDS011;1116;51.502;7.414;2023-05-14T06:39:03;9.10;;;8.30;;
2542;SDS011;1116;51.502;7.414;2023-05-14T06:41:36;8.53;;;7.73;;
2542;SDS011;1116;51.502;7.414;2023-05-14T06:44:07;10.47;;;8.40;;
2542;SDS011;1116;51.502;7.414;2023-05-14T06:46:38;9.40;;;8.50;;
2542;SDS011;1116;51.502;7.414;2023-05-14T06:49:09;10.23;;;9.27;;
2542;SDS011;1116;51.502;7.414;2023-05-14T06:51:40;9.17;;;8.37;;
2542;SDS011;1116;51.502;7.414;2023-05-14T06:54:12;8.60;;;7.90;;
2542;SDS011;1116;51.502;7.414;2023-05-14T06:56:46;9.23;;;8.53;;
2542;SDS011;1116;51.502;7.414;2023-05-14T06:59:17;9.83;;;8.77;;
2542;SDS011;1116;51.502;7.414;2023-05-14T07:01:48;9.40;;;8.70;;
2542;SDS011;1116;51.502;7.414;2023-05-14T07:04:19;8.87;;;8.17;;
2542;SDS011;1116;51.502;7.414;2023-05-14T07:06:50;8.63;;;7.90;;
2542;SDS011;1116;51.502;7.414;2023-05-14T07:09:21;8.37;;;7.67;;
2542;SDS011;1116;51.502;7.414;2023-05-14T07:11:58;8.03;;;7.30;;
2542;SDS011;1116;51.502;7.414;2023-05-14T07:14:28;7.87;;;7.13;;
2542;SDS011;1116;51.502;7.414;2023-05-14T07:16:59;7.73;;;7.00;;
2542;SDS011;1116;51.502;7.414;2023-05-14T07:19:30;8.27;;;6.60;;
2542;SDS011;1116;51.502;7.414;2023-05-14T07:22:01;6.50;;;5.87;;
2542;SDS011;1116;51.502;7.414;2023-05-14T07:24:32;6.93;;;6.33;;
2542;SDS011;1116;51.502;7.414;2023-05-14T07:27:06;7.00;;;6.40;;
2542;SDS011;1116;51.502;7.414;2023-05-14T07:29:38;6.33;;;5.83;;
2542;SDS011;1116;51.502;7.414;2023-05-14T07:32:09;6.53;;;5.93;;
2542;SDS011;1116;51.502;7.414;2023-05-14T07:34:42;5.63;;;5.27;;
2542;SDS011;1116;51.502;7.414;2023-05-14T07:37:13;5.70;;;5.30;;
2542;SDS011;1116;51.502;7.414;2023-05-14T07:39:43;5.93;;;5.43;;
2542;SDS011;1116;51.502;7.414;2023-05-14T07:42:17;6.00;;;5.40;;
2542;SDS011;1116;51.502;7.414;2023-05-14T07:44:58;4.60;;;4.20;;
2542;SDS011;1116;51.502;7.414;2023-05-14T07:47:29;5.07;;;4.77;;
2542;SDS011;1116;51.502;7.414;2023-05-14T07:50:01;4.80;;;4.40;;
2542;SDS011;1116;51.502;7.414;2023-05-14T07:52:32;4.87;;;4.47;;
2542;SDS011;1116;51.502;7.414;2023-05-14T07:55:03;5.33;;;4.93;;
2542;SDS011;1116;51.502;7.414;2023-05-14T07:57:38;4.60;;;4.30;;
2542;SDS011;1116;51.502;7.414;2023-05-14T08:00:10;4.80;;;4.50;;
2542;SDS011;1116;51.502;7.414;2023-05-14T08:02:42;5.50;;;5.00;;
2542;SDS011;1116;51.502;7.414;2023-05-14T08:05:15;4.90;;;4.50;;
2542;SDS011;1116;51.502;7.414;2023-05-14T08:07:47;4.70;;;4.40;;
2542;SDS011;1116;51.502;7.414;2023-05-14T08:10:18;5.13;;;4.73;;
2542;SDS011;1116;51.502;7.414;2023-05-14T08:12:52;4.97;;;4.57;;
2542;SDS011;1116;51.502;7.414;2023-05-14T08:15:23;7.33;;;4.30;;
2542;SDS011;1116;51.502;7.414;2023-05-14T08:17:54;4.40;;;4.00;;
2542;SDS011;1116;51.502;7.414;2023-05-14T08:20:30;4.90;;;4.50;;
2542;SDS011;1116;51.502;7.414;2023-05-14T08:23:03;5.40;;;4.90;;
2542;SDS011;1116;51.502;7.414;2023-05-14T08:25:35;4.77;;;4.47;;
2542;SDS011;1116;51.502;7.414;2023-05-14T08:28:09;4.50;;;4.10;;
2542;SDS011;1116;51.502;7.414;2023-05-14T08:30:40;4.33;;;4.03;;
2542;SDS011;1116;51.502;7.414;2023-05-14T08:33:11;4.23;;;3.93;;
2542;SDS011;1116;51.502;7.414;2023-05-14T08:35:42;4.70;;;4.30;;
2542;SDS011;1116;51.502;7.414;2023-05-14T08:38:15;4.37;;;4.07;;
2542;SDS011;1116;51.502;7.414;2023-05-14T08:40:47;3.70;;;3.20;;
2542;SDS011;1116;51.502;7.414;2023-05-14T08:43:29;4.57;;;3.07;;
2542;SDS011;1116;51.502;7.414;2023-05-14T08:46:07;3.90;;;3.70;;
2542;SDS011;1116;51.502;7.414;2023-05-14T08:48:39;3.70;;;3.40;;
2542;SDS011;1116;51.502;7.414;2023-05-14T08:51:12;3.30;;;3.00;;
2542;SDS011;1116;51.502;7.414;2023-05-14T08:53:43;2.93;;;2.73;;
2542;SDS011;1116;51.502;7.414;2023-05-14T08:56:15;3.80;;;3.60;;
2542;SDS011;1116;51.502;7.414;2023-05-14T08:58:51;4.00;;;3.50;;
2542;SDS011;1116;51.502;7.414;2023-05-14T09:01:22;4.23;;;3.87;;
2542;SDS011;1116;51.502;7.414;2023-05-14T09:03:53;5.03;;;3.60;;
2542;SDS011;1116;51.502;7.414;2023-05-14T09:06:24;3.80;;;3.50;;
2542;SDS011;1116;51.502;7.414;2023-05-14T09:08:57;3.37;;;3.17;;
2542;SDS011;1116;51.502;7.414;2023-05-14T09:11:30;3.30;;;3.10;;
2542;SDS011;1116;51.502;7.414;2023-05-14T09:14:03;3.50;;;3.20;;
2542;SDS011;1116;51.502;7.414;2023-05-14T09:16:34;4.27;;;3.10;;
2542;SDS011;1116;51.502;7.414;2023-05-14T09:19:06;3.40;;;3.13;;
2542;SDS011;1116;51.502;7.414;2023-05-14T09:21:38;3.27;;;3.07;;
2542;SDS011;1116;51.502;7.414;2023-05-14T09:24:09;3.90;;;3.50;;
2542;SDS011;1116;51.502;7.414;2023-05-14T09:26:48;3.00;;;2.80;;
2542;SDS011;1116;51.502;7.414;2023-05-14T09:29:23;3.80;;;2.70;;
2542;SDS011;1116;51.502;7.414;2023-05-14T09:31:55;2.80;;;2.60;;
2542;SDS011;1116;51.502;7.414;2023-05-14T09:34:29;2.73;;;2.53;;
2542;SDS011;1116;51.502;7.414;2023-05-14T09:37:02;3.00;;;2.80;;
2542;SDS011;1116;51.502;7.414;2023-05-14T09:39:34;2.20;;;2.10;;
2542;SDS011;1116;51.502;7.414;2023-05-14T09:42:06;2.90;;;2.70;;
2542;SDS011;1116;51.502;7.414;2023-05-14T09:44:40;2.30;;;2.10;;
2542;SDS011;1116;51.502;7.414;2023-05-14T09:47:11;2.17;;;2.07;;
2542;SDS011;1116;51.502;7.414;2023-05-14T09:49:45;2.43;;;2.30;;
2542;SDS011;1116;51.502;7.414;2023-05-14T09:52:18;2.20;;;2.10;;
2542;SDS011;1116;51.502;7.414;2023-05-14T09:54:49;2.60;;;2.30;;
2542;SDS011;1116;51.502;7.414;2023-05-14T09:57:21;2.50;;;2.30;;
2542;SDS011;1116;51.502;7.414;2023-05-14T09:59:55;2.30;;;2.20;;
2542;SDS011;1116;51.502;7.414;2023-05-14T10:02:29;2.43;;;2.23;;
2542;SDS011;1116;51.502;7.414;2023-05-14T10:05:08;3.43;;;2.57;;
2542;SDS011;1116;51.502;7.414;2023-05-14T10:07:43;2.30;;;2.20;;
2542;SDS011;1116;51.502;7.414;2023-05-14T10:10:18;2.47;;;2.30;;
2542;SDS011;1116;51.502;7.414;2023-05-14T10:12:50;2.23;;;2.13;;
2542;SDS011;1116;51.502;7.414;2023-05-14T10:15:29;2.80;;;2.60;;
2542;SDS011;1116;51.502;7.414;2023-05-14T10:18:08;3.07;;;2.03;;
2542;SDS011;1116;51.502;7.414;2023-05-14T10:20:40;2.30;;;2.10;;
2542;SDS011;1116;51.502;7.414;2023-05-14T10:23:12;2.70;;;2.50;;
2542;SDS011;1116;51.502;7.414;2023-05-14T10:25:43;4.23;;;2.10;;
2542;SDS011;1116;51.502;7.414;2023-05-14T10:28:15;2.50;;;2.30;;
2542;SDS011;1116;51.502;7.414;2023-05-14T10:30:48;3.03;;;2.50;;
2542;SDS011;1116;51.502;7.414;2023-05-14T10:33:20;2.57;;;2.37;;
2542;SDS011;1116;51.502;7.414;2023-05-14T10:35:53;2.80;;;2.60;;
2542;SDS011;1116;51.502;7.414;2023-05-14T10:38:31;3.43;;;2.73;;
2542;SDS011;1116;51.502;7.414;2023-05-14T10:41:03;2.50;;;2.20;;
2542;SDS011;1116;51.502;7.414;2023-05-14T10:43:38;2.17;;;2.07;;
2542;SDS011;1116;51.502;7.414;2023-05-14T10:46:12;2.30;;;2.20;;
2542;SDS011;1116;51.502;7.414;2023-05-14T10:48:44;4.50;;;2.83;;
2542;SDS011;1116;51.502;7.414;2023-05-14T10:51:15;2.63;;;2.53;;
2542;SDS011;1116;51.502;7.414;2023-05-14T10:53:49;2.70;;;2.50;;
2542;SDS011;1116;51.502;7.414;2023-05-14T10:56:21;2.93;;;2.73;;
2542;SDS011;1116;51.502;7.414;2023-05-14T10:58:52;2.57;;;2.37;;
2542;SDS011;1116;51.502;7.414;2023-05-14T11:01:31;3.10;;;2.80;;
2542;SDS011;1116;51.502;7.414;2023-05-14T11:04:02;3.77;;;2.90;;
2542;SDS011;1116;51.502;7.414;2023-05-14T11:06:34;2.87;;;2.70;;
2542;SDS011;1116;51.502;7.414;2023-05-14T11:09:08;3.07;;;2.87;;
2542;SDS011;1116;51.502;7.414;2023-05-14T11:11:39;2.20;;;2.10;;
2542;SDS011;1116;51.502;7.414;2023-05-14T11:14:10;2.70;;;2.50;;
2542;SDS011;1116;51.502;7.414;2023-05-14T11:16:44;3.13;;;2.10;;
2542;SDS011;1116;51.502;7.414;2023-05-14T11:19:17;2.70;;;2.50;;
2542;SDS011;1116;51.502;7.414;2023-05-14T11:21:51;2.30;;;2.20;;
2542;SDS011;1116;51.502;7.414;2023-05-14T11:24:22;3.20;;;2.70;;
2542;SDS011;1116;51.502;7.414;2023-05-14T11:26:54;2.70;;;2.50;;
2542;SDS011;1116;51.502;7.414;2023-05-14T11:29:25;4.37;;;2.60;;
2542;SDS011;1116;51.502;7.414;2023-05-14T11:32:03;2.83;;;2.63;;
2542;SDS011;1116;51.502;7.414;2023-05-14T11:34:35;2.60;;;2.40;;
2542;SDS011;1116;51.502;7.414;2023-05-14T11:37:06;2.53;;;2.33;;
2542;SDS011;1116;51.502;7.414;2023-05-14T11:39:44;2.80;;;2.60;;
2542;SDS011;1116;51.502;7.414;2023-05-14T11:42:16;2.50;;;2.37;;
2542;SDS011;1116;51.502;7.414;2023-05-14T11:44:48;2.70;;;2.53;;
2542;SDS011;1116;51.502;7.414;2023-05-14T11:47:27;3.00;;;2.80;;
2542;SDS011;1116;51.502;7.414;2023-05-14T11:49:59;3.60;;;2.60;;
2542;SDS011;1116;51.502;7.414;2023-05-14T11:52:30;2.87;;;2.47;;
2542;SDS011;1116;51.502;7.414;2023-05-14T11:55:00;4.17;;;2.53;;
2542;SDS011;1116;51.502;7.414;2023-05-14T11:57:31;2.60;;;2.40;;
2542;SDS011;1116;51.502;7.414;2023-05-14T12:00:03;2.90;;;2.70;;
2542;SDS011;1116;51.502;7.414;2023-05-14T12:02:43;2.33;;;2.13;;
2542;SDS011;1116;51.502;7.414;2023-05-14T12:05:14;2.80;;;2.53;;
2542;SDS011;1116;51.502;7.414;2023-05-14T12:07:45;2.80;;;2.43;;
2542;SDS011;1116;51.502;7.414;2023-05-14T12:10:16;2.47;;;2.27;;
2542;SDS011;1116;51.502;7.414;2023-05-14T12:12:48;2.30;;;2.10;;
2542;SDS011;1116;51.502;7.414;2023-05-14T12:15:19;2.30;;;2.20;;
2542;SDS011;1116;51.502;7.414;2023-05-14T12:17:52;2.30;;;2.20;;
2542;SDS011;1116;51.502;7.414;2023-05-14T12:20:23;2.50;;;2.40;;
2542;SDS011;1116;51.502;7.414;2023-05-14T12:22:55;2.50;;;2.20;;
2542;SDS011;1116;51.502;7.414;2023-05-14T12:25:26;2.17;;;2.07;;
2542;SDS011;1116;51.502;7.414;2023-05-14T12:27:58;2.47;;;2.27;;
2542;SDS011;1116;51.502;7.414;2023-05-14T12:30:35;2.50;;;2.33;;
2542;SDS011;1116;51.502;7.414;2023-05-14T12:33:09;2.70;;;2.50;;
2542;SDS011;1116;51.502;7.414;2023-05-14T12:35:40;2.60;;;2.40;;
2542;SDS011;1116;51.502;7.414;2023-05-14T12:38:11;4.13;;;3.30;;
2542;SDS011;1116;51.502;7.414;2023-05-14T12:40:42;2.40;;;2.30;;
2542;SDS011;1116;51.502;7.414;2023-05-14T12:43:13;2.90;;;2.70;;
2542;SDS011;1116;51.502;7.414;2023-05-14T12:45:47;4.87;;;2.70;;
2542;SDS011;1116;51.502;7.414;2023-05-14T12:48:21;2.63;;;2.43;;
2542;SDS011;1116;51.502;7.414;2023-05-14T12:50:52;2.83;;;2.63;;
2542;SDS011;1116;51.502;7.414;2023-05-14T12:53:23;2.03;;;1.93;;
2542;SDS011;1116;51.502;7.414;2023-05-14T12:55:54;2.10;;;2.00;;
2542;SDS011;1116;51.502;7.414;2023-05-14T12:58:25;2.30;;;2.20;;
2542;SDS011;1116;51.502;7.414;2023-05-14T13:00:56;2.57;;;2.37;;
2542;SDS011;1116;51.502;7.414;2023-05-14T13:03:30;2.30;;;2.10;;
2542;SDS011;1116;51.502;7.414;2023-05-14T13:06:01;2.60;;;2.20;;
2542;SDS011;1116;51.502;7.414;2023-05-14T13:08:31;2.40;;;2.30;;
2542;SDS011;1116;51.502;7.414;2023-05-14T13:11:02;2.90;;;2.60;;
2542;SDS011;1116;51.502;7.414;2023-05-14T13:13:33;3.17;;;2.80;;
2542;SDS011;1116;51.502;7.414;2023-05-14T13:16:04;2.70;;;2.50;;
2542;SDS011;1116;51.502;7.414;2023-05-14T13:18:38;2.40;;;2.20;;
2542;SDS011;1116;51.502;7.414;2023-05-14T13:21:09;2.40;;;2.23;;
2542;SDS011;1116;51.502;7.414;2023-05-14T13:23:41;2.90;;;2.70;;
2542;SDS011;1116;51.502;7.414;2023-05-14T13:26:12;2.10;;;1.93;;
2542;SDS011;1116;51.502;7.414;2023-05-14T13:28:43;2.00;;;1.90;;
2542;SDS011;1116;51.502;7.414;2023-05-14T13:31:14;2.93;;;2.40;;
2542;SDS011;1116;51.502;7.414;2023-05-14T13:33:48;2.50;;;2.30;;
2542;SDS011;1116;51.502;7.414;2023-05-14T13:36:19;2.10;;;2.00;;
2542;SDS011;1116;51.502;7.414;2023-05-14T13:38:50;2.57;;;2.37;;
2542;SDS011;1116;51.502;7.414;2023-05-14T13:41:21;2.77;;;2.17;;
2542;SDS011;1116;51.502;7.414;2023-05-14T13:43:52;2.67;;;2.47;;
2542;SDS011;1116;51.502;7.414;2023-05-14T13:46:23;2.67;;;2.47;;
2542;SDS011;1116;51.502;7.414;2023-05-14T13:48:56;2.63;;;2.43;;
2542;SDS011;1116;51.502;7.414;2023-05-14T13:51:27;2.77;;;2.57;;
2542;SDS011;1116;51.502;7.414;2023-05-14T13:53:58;2.27;;;2.13;;
2542;SDS011;1116;51.502;7.414;2023-05-14T13:56:30;2.00;;;1.90;;
2542;SDS011;1116;51.502;7.414;2023-05-14T13:59:00;2.13;;;2.00;;
2542;SDS011;1116;51.502;7.414;2023-05-14T14:01:32;2.00;;;1.90;;
2542;SDS011;1116;51.502;7.414;2023-05-14T14:04:05;2.57;;;2.37;;
2542;SDS011;1116;51.502;7.414;2023-05-14T14:06:36;2.00;;;1.90;;
2542;SDS011;1116;51.502;7.414;2023-05-14T14:09:07;2.30;;;2.10;;
2542;SDS011;1116;51.502;7.414;2023-05-14T14:11:40;1.97;;;1.70;;
2542;SDS011;1116;51.502;7.414;2023-05-14T14:14:11;5.57;;;1.90;;
2542;SDS011;1116;51.502;7.414;2023-05-14T14:16:42;1.67;;;1.60;;
2542;SDS011;1116;51.502;7.414;2023-05-14T14:19:15;2.00;;;1.90;;
2542;SDS011;1116;51.502;7.414;2023-05-14T14:21:47;2.07;;;1.97;;
2542;SDS011;1116;51.502;7.414;2023-05-14T14:24:18;2.30;;;2.10;;
2542;SDS011;1116;51.502;7.414;2023-05-14T14:26:49;2.13;;;1.97;;
2542;SDS011;1116;51.502;7.414;2023-05-14T14:29:20;2.03;;;1.93;;
2542;SDS011;1116;51.502;7.414;2023-05-14T14:31:51;2.07;;;1.97;;
2542;SDS011;1116;51.502;7.414;2023-05-14T14:34:24;3.47;;;1.80;;
2542;SDS011;1116;51.502;7.414;2023-05-14T14:36:55;1.90;;;1.80;;
2542;SDS011;1116;51.502;7.414;2023-05-14T14:39:26;2.07;;;1.87;;
2542;SDS011;1116;51.502;7.414;2023-05-14T14:41:57;4.40;;;3.97;;
2542;SDS011;1116;51.502;7.414;2023-05-14T14:44:28;2.23;;;2.13;;
2542;SDS011;1116;51.502;7.414;2023-05-14T14:46:59;2.23;;;2.03;;
2542;SDS011;1116;51.502;7.414;2023-05-14T14:49:32;2.20;;;2.00;;
2542;SDS011;1116;51.502;7.414;2023-05-14T14:52:03;3.03;;;2.80;;
2542;SDS011;1116;51.502;7.414;2023-05-14T14:54:34;1.80;;;1.70;;
2542;SDS011;1116;51.502;7.414;2023-05-14T14:57:05;2.10;;;2.00;;
2542;SDS011;1116;51.502;7.414;2023-05-14T14:59:36;2.23;;;2.07;;
2542;SDS011;1116;51.502;7.414;2023-05-14T15:02:08;2.57;;;2.37;;
2542;SDS011;1116;51.502;7.414;2023-05-14T15:04:41;2.70;;;2.50;;
2542;SDS011;1116;51.502;7.414;2023-05-14T15:07:12;2.90;;;2.17;;
2542;SDS011;1116;51.502;7.414;2023-05-14T15:09:46;2.10;;;1.90;;
2542;SDS011;1116;51.502;7.414;2023-05-14T15:12:17;2.47;;;2.30;;
2542;SDS011;1116;51.502;7.414;2023-05-14T15:14:48;1.90;;;1.80;;
2542;SDS011;1116;51.502;7.414;2023-05-14T15:17:19;2.30;;;2.13;;
2542;SDS011;1116;51.502;7.414;2023-05-14T15:19:55;1.73;;;1.63;;
2542;SDS011;1116;51.502;7.414;2023-05-14T15:22:26;2.00;;;1.80;;
2542;SDS011;1116;51.502;7.414;2023-05-14T15:24:57;2.27;;;2.07;;
2542;SDS011;1116;51.502;7.414;2023-05-14T15:27:28;2.10;;;1.90;;
2542;SDS011;1116;51.502;7.414;2023-05-14T15:29:59;2.00;;;1.90;;
2542;SDS011;1116;51.502;7.414;2023-05-14T15:32:30;2.00;;;1.90;;
2542;SDS011;1116;51.502;7.414;2023-05-14T15:35:04;1.63;;;1.53;;
2542;SDS011;1116;51.502;7.414;2023-05-14T15:37:36;2.17;;;2.07;;